sensor_id;sensor_type;location;lat;lon;timestamp;P1;durP1;ratioP1;P2;durP2;ratioP2
20890;SDS011;10605;52.968;8.844;2023-05-10T01:50:04;7.57;;;3.90;;
20890;SDS011;10605;52.968;8.844;2023-05-10T06:59:12;11.00;;;9.70;;
20890;SDS011;10605;52.968;8.844;2023-05-10T07:01:38;11.20;;;10.13;;
20890;SDS011;10605;52.968;8.844;2023-05-10T07:04:04;10.45;;;9.57;;
20890;SDS011;10605;52.968;8.844;2023-05-10T07:06:30;14.18;;;9.77;;
20890;SDS011;10605;52.968;8.844;2023-05-10T07:08:56;10.65;;;9.77;;
20890;SDS011;10605;52.968;8.844;2023-05-10T07:11:22;10.18;;;9.27;;
20890;SDS011;10605;52.968;8.844;2023-05-10T07:13:47;10.93;;;9.82;;
20890;SDS011;10605;52.968;8.844;2023-05-10T07:16:13;10.10;;;9.40;;
20890;SDS011;10605;52.968;8.844;2023-05-10T07:18:38;11.73;;;10.27;;
20890;SDS011;10605;52.968;8.844;2023-05-10T07:21:04;11.07;;;9.45;;
20890;SDS011;10605;52.968;8.844;2023-05-10T07:23:30;10.50;;;9.57;;
20890;SDS011;10605;52.968;8.844;2023-05-10T07:25:56;10.30;;;9.50;;
20890;SDS011;10605;52.968;8.844;2023-05-10T07:28:22;10.77;;;9.75;;
20890;SDS011;10605;52.968;8.844;2023-05-10T07:30:49;13.68;;;9.35;;
20890;SDS011;10605;52.968;8.844;2023-05-10T07:33:15;10.60;;;9.10;;
20890;SDS011;10605;52.968;8.844;2023-05-10T07:35:41;9.00;;;8.30;;
20890;SDS011;10605;52.968;8.844;2023-05-10T07:38:07;10.77;;;7.45;;
20890;SDS011;10605;52.968;8.844;2023-05-10T07:40:33;8.13;;;7.53;;
20890;SDS011;10605;52.968;8.844;2023-05-10T07:42:59;7.70;;;7.05;;
20890;SDS011;10605;52.968;8.844;2023-05-10T07:45:27;8.68;;;8.05;;
20890;SDS011;10605;52.968;8.844;2023-05-10T07:47:53;7.82;;;7.13;;
20890;SDS011;10605;52.968;8.844;2023-05-10T07:50:19;6.55;;;5.85;;
20890;SDS011;10605;52.968;8.844;2023-05-10T07:52:46;4.75;;;4.45;;
20890;SDS011;10605;52.968;8.844;2023-05-10T07:55:12;3.58;;;3.38;;
20890;SDS011;10605;52.968;8.844;2023-05-10T07:57:37;3.78;;;3.58;;
20890;SDS011;10605;52.968;8.844;2023-05-10T08:00:04;3.63;;;3.42;;
20890;SDS011;10605;52.968;8.844;2023-05-10T08:02:30;3.90;;;3.47;;
20890;SDS011;10605;52.968;8.844;2023-05-10T08:04:56;4.70;;;4.50;;
20890;SDS011;10605;52.968;8.844;2023-05-10T08:07:22;4.78;;;4.47;;
20890;SDS011;10605;52.968;8.844;2023-05-10T08:09:49;4.90;;;4.60;;
20890;SDS011;10605;52.968;8.844;2023-05-10T08:12:15;5.00;;;4.60;;
20890;SDS011;10605;52.968;8.844;2023-05-10T08:14:40;5.05;;;4.00;;
20890;SDS011;10605;52.968;8.844;2023-05-10T08:17:06;4.50;;;3.95;;
20890;SDS011;10605;52.968;8.844;2023-05-10T08:19:32;3.47;;;3.28;;
20890;SDS011;10605;52.968;8.844;2023-05-10T08:21:57;3.03;;;2.92;;
20890;SDS011;10605;52.968;8.844;2023-05-10T08:24:23;2.90;;;2.80;;
20890;SDS011;10605;52.968;8.844;2023-05-10T08:26:49;2.60;;;2.50;;
20890;SDS011;10605;52.968;8.844;2023-05-10T08:29:14;2.72;;;2.35;;
20890;SDS011;10605;52.968;8.844;2023-05-10T08:31:40;1.90;;;1.80;;
20890;SDS011;10605;52.968;8.844;2023-05-10T08:34:06;1.70;;;1.70;;
20890;SDS011;10605;52.968;8.844;2023-05-10T08:36:32;1.60;;;1.50;;
20890;SDS011;10605;52.968;8.844;2023-05-10T08:38:58;1.80;;;1.70;;
20890;SDS011;10605;52.968;8.844;2023-05-10T08:41:24;1.63;;;1.52;;
20890;SDS011;10605;52.968;8.844;2023-05-10T08:43:50;1.77;;;1.67;;
20890;SDS011;10605;52.968;8.844;2023-05-10T08:46:21;1.90;;;1.80;;
20890;SDS011;10605;52.968;8.844;2023-05-10T08:48:48;1.85;;;1.75;;
20890;SDS011;10605;52.968;8.844;2023-05-10T08:51:19;2.10;;;2.00;;
20890;SDS011;10605;52.968;8.844;2023-05-10T08:53:51;2.05;;;1.95;;
20890;SDS011;10605;52.968;8.844;2023-05-10T08:56:17;2.28;;;2.08;;
20890;SDS011;10605;52.968;8.844;2023-05-10T08:58:45;2.60;;;2.33;;
20890;SDS011;10605;52.968;8.844;2023-05-10T09:01:10;2.25;;;1.73;;
20890;SDS011;10605;52.968;8.844;2023-05-10T09:03:38;2.47;;;1.75;;
20890;SDS011;10605;52.968;8.844;2023-05-10T09:06:05;1.60;;;1.50;;
20890;SDS011;10605;52.968;8.844;2023-05-10T09:08:31;3.45;;;1.60;;
20890;SDS011;10605;52.968;8.844;2023-05-10T09:10:58;2.08;;;1.85;;
20890;SDS011;10605;52.968;8.844;2023-05-10T09:13:26;1.92;;;1.83;;
20890;SDS011;10605;52.968;8.844;2023-05-10T11:44:23;2.13;;;0.80;;
20890;SDS011;10605;52.968;8.844;2023-05-10T11:50:43;0.40;;;0.40;;
20890;SDS011;10605;52.968;8.844;2023-05-10T11:53:52;2.47;;;0.30;;
20890;SDS011;10605;52.968;8.844;2023-05-10T11:56:44;0.30;;;0.30;;
20890;SDS011;10605;52.968;8.844;2023-05-10T11:59:20;0.30;;;0.30;;
20890;SDS011;10605;52.968;8.844;2023-05-10T12:01:56;0.30;;;0.30;;
20890;SDS011;10605;52.968;8.844;2023-05-10T12:11:47;0.38;;;0.28;;
20890;SDS011;10605;52.968;8.844;2023-05-10T12:14:13;3.40;;;0.50;;
20890;SDS011;10605;52.968;8.844;2023-05-10T12:16:42;0.57;;;0.50;;
20890;SDS011;10605;52.968;8.844;2023-05-10T12:19:08;0.50;;;0.50;;
20890;SDS011;10605;52.968;8.844;2023-05-10T12:21:34;0.55;;;0.47;;
20890;SDS011;10605;52.968;8.844;2023-05-10T12:24:06;0.20;;;0.20;;
20890;SDS011;10605;52.968;8.844;2023-05-10T12:26:33;0.50;;;0.50;;
20890;SDS011;10605;52.968;8.844;2023-05-10T12:29:13;3.00;;;0.38;;
20890;SDS011;10605;52.968;8.844;2023-05-10T12:31:50;0.50;;;0.50;;
20890;SDS011;10605;52.968;8.844;2023-05-10T12:34:41;0.60;;;0.60;;
20890;SDS011;10605;52.968;8.844;2023-05-10T12:37:07;0.50;;;0.50;;
20890;SDS011;10605;52.968;8.844;2023-05-10T12:39:42;0.57;;;0.57;;
20890;SDS011;10605;52.968;8.844;2023-05-10T12:42:09;0.50;;;0.50;;
20890;SDS011;10605;52.968;8.844;2023-05-10T12:44:35;0.70;;;0.70;;
20890;SDS011;10605;52.968;8.844;2023-05-10T12:47:01;0.43;;;0.43;;
20890;SDS011;10605;52.968;8.844;2023-05-10T12:49:29;0.50;;;0.50;;
20890;SDS011;10605;52.968;8.844;2023-05-10T12:51:58;0.35;;;0.30;;
20890;SDS011;10605;52.968;8.844;2023-05-10T12:54:25;0.40;;;0.40;;
20890;SDS011;10605;52.968;8.844;2023-05-10T12:57:02;0.40;;;0.40;;
20890;SDS011;10605;52.968;8.844;2023-05-10T13:06:29;0.30;;;0.30;;
20890;SDS011;10605;52.968;8.844;2023-05-10T13:09:03;1.95;;;0.40;;
20890;SDS011;10605;52.968;8.844;2023-05-10T13:11:28;0.35;;;0.35;;
20890;SDS011;10605;52.968;8.844;2023-05-10T13:13:54;2.28;;;0.40;;
20890;SDS011;10605;52.968;8.844;2023-05-10T13:16:23;0.68;;;0.30;;
20890;SDS011;10605;52.968;8.844;2023-05-10T13:18:53;0.20;;;0.20;;
20890;SDS011;10605;52.968;8.844;2023-05-10T13:21:19;1.55;;;0.20;;
20890;SDS011;10605;52.968;8.844;2023-05-10T13:23:44;0.13;;;0.13;;
20890;SDS011;10605;52.968;8.844;2023-05-10T13:26:11;1.45;;;0.20;;
20890;SDS011;10605;52.968;8.844;2023-05-10T13:28:37;0.73;;;0.30;;
20890;SDS011;10605;52.968;8.844;2023-05-10T13:31:04;0.40;;;0.40;;
20890;SDS011;10605;52.968;8.844;2023-05-10T13:33:30;2.40;;;0.50;;
20890;SDS011;10605;52.968;8.844;2023-05-10T13:35:55;1.40;;;0.50;;
20890;SDS011;10605;52.968;8.844;2023-05-10T13:38:21;0.63;;;0.60;;
20890;SDS011;10605;52.968;8.844;2023-05-10T13:40:49;0.35;;;0.35;;
20890;SDS011;10605;52.968;8.844;2023-05-10T13:43:26;1.33;;;0.40;;
20890;SDS011;10605;52.968;8.844;2023-05-10T13:46:38;0.50;;;0.50;;
20890;SDS011;10605;52.968;8.844;2023-05-10T13:49:12;2.42;;;0.70;;
20890;SDS011;10605;52.968;8.844;2023-05-10T13:52:13;0.63;;;0.60;;
20890;SDS011;10605;52.968;8.844;2023-05-10T13:54:48;0.80;;;0.50;;
20890;SDS011;10605;52.968;8.844;2023-05-10T13:57:19;0.40;;;0.40;;
20890;SDS011;10605;52.968;8.844;2023-05-10T13:59:46;0.90;;;0.40;;
20890;SDS011;10605;52.968;8.844;2023-05-10T14:02:12;2.05;;;0.40;;
20890;SDS011;10605;52.968;8.844;2023-05-10T14:04:38;0.40;;;0.40;;
20890;SDS011;10605;52.968;8.844;2023-05-10T14:07:06;2.95;;;0.60;;
20890;SDS011;10605;52.968;8.844;2023-05-10T14:09:38;0.35;;;0.35;;
20890;SDS011;10605;52.968;8.844;2023-05-10T14:12:09;0.50;;;0.50;;
20890;SDS011;10605;52.968;8.844;2023-05-10T14:14:42;0.50;;;0.50;;
20890;SDS011;10605;52.968;8.844;2023-05-10T14:17:13;1.05;;;0.50;;
20890;SDS011;10605;52.968;8.844;2023-05-10T14:19:47;2.65;;;0.52;;
20890;SDS011;10605;52.968;8.844;2023-05-10T14:22:13;0.75;;;0.73;;
20890;SDS011;10605;52.968;8.844;2023-05-10T14:24:46;0.68;;;0.68;;
20890;SDS011;10605;52.968;8.844;2023-05-10T14:27:15;0.85;;;0.82;;
20890;SDS011;10605;52.968;8.844;2023-05-10T14:29:53;0.70;;;0.70;;
20890;SDS011;10605;52.968;8.844;2023-05-10T14:32:21;0.80;;;0.80;;
20890;SDS011;10605;52.968;8.844;2023-05-10T14:34:50;0.77;;;0.77;;
20890;SDS011;10605;52.968;8.844;2023-05-10T14:37:28;0.70;;;0.70;;
20890;SDS011;10605;52.968;8.844;2023-05-10T14:40:00;1.75;;;0.90;;
20890;SDS011;10605;52.968;8.844;2023-05-10T14:42:28;0.70;;;0.70;;
20890;SDS011;10605;52.968;8.844;2023-05-10T14:44:54;0.70;;;0.70;;
20890;SDS011;10605;52.968;8.844;2023-05-10T14:47:20;0.90;;;0.90;;
20890;SDS011;10605;52.968;8.844;2023-05-10T14:49:46;1.40;;;0.65;;
20890;SDS011;10605;52.968;8.844;2023-05-10T14:52:12;0.65;;;0.65;;
20890;SDS011;10605;52.968;8.844;2023-05-10T14:54:39;2.08;;;0.77;;
20890;SDS011;10605;52.968;8.844;2023-05-10T14:57:08;0.73;;;0.73;;
20890;SDS011;10605;52.968;8.844;2023-05-10T14:59:34;0.65;;;0.60;;
20890;SDS011;10605;52.968;8.844;2023-05-10T15:01:59;0.63;;;0.63;;
20890;SDS011;10605;52.968;8.844;2023-05-10T15:04:25;2.08;;;0.60;;
20890;SDS011;10605;52.968;8.844;2023-05-10T15:06:56;0.40;;;0.40;;
20890;SDS011;10605;52.968;8.844;2023-05-10T15:09:25;0.93;;;0.57;;
20890;SDS011;10605;52.968;8.844;2023-05-10T15:11:55;1.15;;;0.47;;
20890;SDS011;10605;52.968;8.844;2023-05-10T15:14:21;0.75;;;0.75;;
20890;SDS011;10605;52.968;8.844;2023-05-10T15:16:47;1.17;;;0.50;;
20890;SDS011;10605;52.968;8.844;2023-05-10T15:19:13;0.40;;;0.40;;
20890;SDS011;10605;52.968;8.844;2023-05-10T15:21:40;0.65;;;0.65;;
20890;SDS011;10605;52.968;8.844;2023-05-10T15:24:08;4.68;;;0.85;;
20890;SDS011;10605;52.968;8.844;2023-05-10T15:26:34;1.40;;;0.65;;
20890;SDS011;10605;52.968;8.844;2023-05-10T15:29:00;0.85;;;0.85;;
20890;SDS011;10605;52.968;8.844;2023-05-10T15:31:28;2.30;;;0.70;;
20890;SDS011;10605;52.968;8.844;2023-05-10T15:34:00;0.80;;;0.80;;
20890;SDS011;10605;52.968;8.844;2023-05-10T15:36:26;1.00;;;0.90;;
20890;SDS011;10605;52.968;8.844;2023-05-10T15:38:55;0.90;;;0.90;;
20890;SDS011;10605;52.968;8.844;2023-05-10T15:41:20;0.80;;;0.80;;
20890;SDS011;10605;52.968;8.844;2023-05-10T15:43:46;3.80;;;0.60;;
20890;SDS011;10605;52.968;8.844;2023-05-10T15:46:12;0.82;;;0.80;;
20890;SDS011;10605;52.968;8.844;2023-05-10T15:48:38;1.02;;;0.73;;
20890;SDS011;10605;52.968;8.844;2023-05-10T15:51:04;0.50;;;0.50;;
20890;SDS011;10605;52.968;8.844;2023-05-10T15:53:33;0.80;;;0.80;;
20890;SDS011;10605;52.968;8.844;2023-05-10T15:55:58;1.55;;;0.80;;
20890;SDS011;10605;52.968;8.844;2023-05-10T15:58:24;1.42;;;1.00;;
20890;SDS011;10605;52.968;8.844;2023-05-10T16:00:50;4.15;;;1.15;;
20890;SDS011;10605;52.968;8.844;2023-05-10T16:03:16;3.90;;;1.10;;
20890;SDS011;10605;52.968;8.844;2023-05-10T16:05:42;3.33;;;1.10;;
20890;SDS011;10605;52.968;8.844;2023-05-10T16:08:08;1.83;;;1.60;;
20890;SDS011;10605;52.968;8.844;2023-05-10T16:10:33;7.10;;;1.40;;
20890;SDS011;10605;52.968;8.844;2023-05-10T16:13:02;1.15;;;1.15;;
20890;SDS011;10605;52.968;8.844;2023-05-10T16:15:28;1.17;;;1.13;;
20890;SDS011;10605;52.968;8.844;2023-05-10T16:17:54;1.20;;;1.20;;
20890;SDS011;10605;52.968;8.844;2023-05-10T16:20:26;1.00;;;1.00;;
20890;SDS011;10605;52.968;8.844;2023-05-10T16:22:52;1.00;;;1.00;;
20890;SDS011;10605;52.968;8.844;2023-05-10T16:25:18;2.95;;;0.85;;
20890;SDS011;10605;52.968;8.844;2023-05-10T16:27:43;1.00;;;0.55;;
20890;SDS011;10605;52.968;8.844;2023-05-10T16:30:12;2.05;;;0.60;;
20890;SDS011;10605;52.968;8.844;2023-05-10T16:32:38;0.52;;;0.52;;
20890;SDS011;10605;52.968;8.844;2023-05-10T16:35:07;0.60;;;0.60;;
20890;SDS011;10605;52.968;8.844;2023-05-10T16:37:36;2.25;;;0.63;;
20890;SDS011;10605;52.968;8.844;2023-05-10T16:40:05;1.17;;;0.63;;
20890;SDS011;10605;52.968;8.844;2023-05-10T16:42:31;0.63;;;0.63;;
20890;SDS011;10605;52.968;8.844;2023-05-10T16:44:57;4.78;;;0.80;;
20890;SDS011;10605;52.968;8.844;2023-05-10T16:47:33;1.10;;;1.00;;
20890;SDS011;10605;52.968;8.844;2023-05-10T16:50:01;0.70;;;0.70;;
20890;SDS011;10605;52.968;8.844;2023-05-10T16:52:28;1.08;;;0.90;;
20890;SDS011;10605;52.968;8.844;2023-05-10T16:54:54;0.80;;;0.80;;
20890;SDS011;10605;52.968;8.844;2023-05-10T16:57:20;2.60;;;0.90;;
20890;SDS011;10605;52.968;8.844;2023-05-10T16:59:52;0.60;;;0.60;;
20890;SDS011;10605;52.968;8.844;2023-05-10T17:02:18;1.27;;;0.90;;
20890;SDS011;10605;52.968;8.844;2023-05-10T17:04:45;1.30;;;0.90;;
20890;SDS011;10605;52.968;8.844;2023-05-10T17:07:11;1.20;;;1.10;;
20890;SDS011;10605;52.968;8.844;2023-05-10T17:09:37;1.42;;;1.00;;
20890;SDS011;10605;52.968;8.844;2023-05-10T17:12:06;2.40;;;0.90;;
20890;SDS011;10605;52.968;8.844;2023-05-10T17:14:32;0.80;;;0.80;;
20890;SDS011;10605;52.968;8.844;2023-05-10T17:16:58;1.08;;;0.82;;
20890;SDS011;10605;52.968;8.844;2023-05-10T17:19:26;1.48;;;0.73;;
20890;SDS011;10605;52.968;8.844;2023-05-10T17:21:52;2.05;;;0.93;;
20890;SDS011;10605;52.968;8.844;2023-05-10T17:24:20;0.95;;;0.93;;
20890;SDS011;10605;52.968;8.844;2023-05-10T17:26:55;1.15;;;1.05;;
20890;SDS011;10605;52.968;8.844;2023-05-10T17:29:25;1.25;;;1.15;;
20890;SDS011;10605;52.968;8.844;2023-05-10T17:31:56;2.22;;;1.10;;
20890;SDS011;10605;52.968;8.844;2023-05-10T17:34:22;1.40;;;1.30;;
20890;SDS011;10605;52.968;8.844;2023-05-10T17:36:51;1.98;;;1.30;;
20890;SDS011;10605;52.968;8.844;2023-05-10T17:39:16;2.22;;;1.45;;
20890;SDS011;10605;52.968;8.844;2023-05-10T17:41:42;1.40;;;1.30;;
20890;SDS011;10605;52.968;8.844;2023-05-10T17:44:08;1.38;;;1.27;;
20890;SDS011;10605;52.968;8.844;2023-05-10T17:46:42;1.70;;;1.27;;
20890;SDS011;10605;52.968;8.844;2023-05-10T17:49:13;2.38;;;1.10;;
20890;SDS011;10605;52.968;8.844;2023-05-10T17:51:45;1.45;;;1.25;;
20890;SDS011;10605;52.968;8.844;2023-05-10T17:54:12;1.73;;;1.63;;
20890;SDS011;10605;52.968;8.844;2023-05-10T17:56:39;1.30;;;1.20;;
20890;SDS011;10605;52.968;8.844;2023-05-10T17:59:05;1.40;;;1.27;;
20890;SDS011;10605;52.968;8.844;2023-05-10T18:01:39;1.60;;;1.48;;
20890;SDS011;10605;52.968;8.844;2023-05-10T18:04:05;2.05;;;1.67;;
20890;SDS011;10605;52.968;8.844;2023-05-10T18:06:40;1.52;;;1.38;;
20890;SDS011;10605;52.968;8.844;2023-05-10T18:09:06;1.98;;;1.50;;
20890;SDS011;10605;52.968;8.844;2023-05-10T18:11:35;1.98;;;1.80;;
20890;SDS011;10605;52.968;8.844;2023-05-10T18:14:02;1.40;;;1.40;;
20890;SDS011;10605;52.968;8.844;2023-05-10T18:16:28;1.50;;;1.40;;
20890;SDS011;10605;52.968;8.844;2023-05-10T18:18:54;1.70;;;1.60;;
20890;SDS011;10605;52.968;8.844;2023-05-10T18:21:20;4.85;;;1.40;;
20890;SDS011;10605;52.968;8.844;2023-05-10T18:23:45;1.70;;;1.60;;
20890;SDS011;10605;52.968;8.844;2023-05-10T18:26:11;1.75;;;1.65;;
20890;SDS011;10605;52.968;8.844;2023-05-10T18:28:37;1.55;;;1.42;;
20890;SDS011;10605;52.968;8.844;2023-05-10T18:31:03;1.77;;;1.67;;
20890;SDS011;10605;52.968;8.844;2023-05-10T18:33:28;3.53;;;1.40;;
20890;SDS011;10605;52.968;8.844;2023-05-10T18:35:54;1.60;;;1.50;;
20890;SDS011;10605;52.968;8.844;2023-05-10T18:38:20;1.90;;;1.80;;
20890;SDS011;10605;52.968;8.844;2023-05-10T18:40:46;1.80;;;1.70;;
20890;SDS011;10605;52.968;8.844;2023-05-10T18:43:11;1.65;;;1.55;;
20890;SDS011;10605;52.968;8.844;2023-05-10T18:45:38;2.47;;;2.08;;
20890;SDS011;10605;52.968;8.844;2023-05-10T18:48:04;1.90;;;1.80;;
20890;SDS011;10605;52.968;8.844;2023-05-10T18:50:30;1.90;;;1.80;;
20890;SDS011;10605;52.968;8.844;2023-05-10T18:52:56;2.33;;;1.80;;
20890;SDS011;10605;52.968;8.844;2023-05-10T18:55:25;2.08;;;1.63;;
20890;SDS011;10605;52.968;8.844;2023-05-10T18:57:50;2.45;;;2.25;;
20890;SDS011;10605;52.968;8.844;2023-05-10T19:00:16;2.15;;;1.70;;
20890;SDS011;10605;52.968;8.844;2023-05-10T19:02:44;2.95;;;1.98;;
20890;SDS011;10605;52.968;8.844;2023-05-10T19:05:13;3.47;;;2.25;;
20890;SDS011;10605;52.968;8.844;2023-05-10T19:07:40;5.55;;;2.47;;
20890;SDS011;10605;52.968;8.844;2023-05-10T19:10:13;3.50;;;2.50;;
20890;SDS011;10605;52.968;8.844;2023-05-10T19:16:01;2.70;;;2.50;;
20890;SDS011;10605;52.968;8.844;2023-05-10T19:18:35;2.67;;;2.53;;
20890;SDS011;10605;52.968;8.844;2023-05-10T19:21:13;2.42;;;2.20;;
20890;SDS011;10605;52.968;8.844;2023-05-10T19:23:39;2.45;;;2.25;;
20890;SDS011;10605;52.968;8.844;2023-05-10T19:26:07;2.75;;;2.45;;
20890;SDS011;10605;52.968;8.844;2023-05-10T19:28:38;2.55;;;2.45;;
20890;SDS011;10605;52.968;8.844;2023-05-10T19:31:12;2.70;;;2.30;;
20890;SDS011;10605;52.968;8.844;2023-05-10T19:33:37;2.75;;;2.30;;
20890;SDS011;10605;52.968;8.844;2023-05-10T19:36:03;2.78;;;2.50;;
20890;SDS011;10605;52.968;8.844;2023-05-10T19:38:29;2.40;;;2.30;;
20890;SDS011;10605;52.968;8.844;2023-05-10T19:41:03;5.30;;;2.30;;
20890;SDS011;10605;52.968;8.844;2023-05-10T19:47:13;3.13;;;2.92;;
20890;SDS011;10605;52.968;8.844;2023-05-10T19:55:38;3.50;;;2.80;;
20890;SDS011;10605;52.968;8.844;2023-05-10T19:58:26;3.22;;;2.72;;
20890;SDS011;10605;52.968;8.844;2023-05-10T20:00:52;3.08;;;2.88;;
20890;SDS011;10605;52.968;8.844;2023-05-10T20:03:18;3.92;;;2.90;;
20890;SDS011;10605;52.968;8.844;2023-05-10T20:05:44;2.90;;;2.70;;
20890;SDS011;10605;52.968;8.844;2023-05-10T20:08:10;3.28;;;2.90;;
20890;SDS011;10605;52.968;8.844;2023-05-10T20:10:35;3.60;;;3.30;;
20890;SDS011;10605;52.968;8.844;2023-05-10T20:13:01;3.65;;;3.33;;
20890;SDS011;10605;52.968;8.844;2023-05-10T20:15:27;3.58;;;3.15;;
20890;SDS011;10605;52.968;8.844;2023-05-10T20:17:53;5.13;;;3.17;;
20890;SDS011;10605;52.968;8.844;2023-05-10T20:20:19;3.22;;;2.83;;
20890;SDS011;10605;52.968;8.844;2023-05-10T20:22:46;3.28;;;2.97;;
20890;SDS011;10605;52.968;8.844;2023-05-10T20:25:12;3.20;;;3.00;;
20890;SDS011;10605;52.968;8.844;2023-05-10T20:27:38;3.45;;;3.25;;
20890;SDS011;10605;52.968;8.844;2023-05-10T20:30:04;3.13;;;2.92;;
20890;SDS011;10605;52.968;8.844;2023-05-10T20:32:31;3.83;;;3.42;;
20890;SDS011;10605;52.968;8.844;2023-05-10T20:34:56;3.60;;;3.40;;
20890;SDS011;10605;52.968;8.844;2023-05-10T20:37:22;3.75;;;3.42;;
20890;SDS011;10605;52.968;8.844;2023-05-10T20:39:48;3.17;;;2.97;;
20890;SDS011;10605;52.968;8.844;2023-05-10T20:42:14;3.97;;;3.78;;
20890;SDS011;10605;52.968;8.844;2023-05-10T20:44:40;3.63;;;3.33;;
20890;SDS011;10605;52.968;8.844;2023-05-10T20:47:06;3.50;;;3.20;;
20890;SDS011;10605;52.968;8.844;2023-05-10T20:49:32;3.42;;;3.22;;
20890;SDS011;10605;52.968;8.844;2023-05-10T20:51:59;3.53;;;3.33;;
20890;SDS011;10605;52.968;8.844;2023-05-10T20:54:25;3.30;;;3.00;;
20890;SDS011;10605;52.968;8.844;2023-05-10T20:56:50;5.13;;;3.70;;
20890;SDS011;10605;52.968;8.844;2023-05-10T20:59:16;9.25;;;3.58;;
20890;SDS011;10605;52.968;8.844;2023-05-10T21:01:43;3.78;;;3.47;;
20890;SDS011;10605;52.968;8.844;2023-05-10T21:04:09;4.35;;;4.05;;
20890;SDS011;10605;52.968;8.844;2023-05-10T21:06:35;6.93;;;3.85;;
20890;SDS011;10605;52.968;8.844;2023-05-10T21:09:01;4.22;;;4.03;;
20890;SDS011;10605;52.968;8.844;2023-05-10T21:11:27;4.53;;;4.13;;
20890;SDS011;10605;52.968;8.844;2023-05-10T21:13:52;4.97;;;4.57;;
20890;SDS011;10605;52.968;8.844;2023-05-10T21:16:18;4.53;;;4.22;;
20890;SDS011;10605;52.968;8.844;2023-05-10T21:18:44;4.50;;;4.10;;
20890;SDS011;10605;52.968;8.844;2023-05-10T21:21:09;3.72;;;3.53;;
20890;SDS011;10605;52.968;8.844;2023-05-10T21:23:35;4.32;;;3.95;;
20890;SDS011;10605;52.968;8.844;2023-05-10T21:26:01;3.97;;;3.67;;
20890;SDS011;10605;52.968;8.844;2023-05-10T21:28:27;4.38;;;4.07;;
20890;SDS011;10605;52.968;8.844;2023-05-10T21:30:53;5.00;;;4.50;;
20890;SDS011;10605;52.968;8.844;2023-05-10T21:33:18;5.40;;;4.00;;
20890;SDS011;10605;52.968;8.844;2023-05-10T21:35:44;4.43;;;4.13;;
20890;SDS011;10605;52.968;8.844;2023-05-10T21:38:10;4.60;;;4.30;;
20890;SDS011;10605;52.968;8.844;2023-05-10T21:40:36;5.80;;;4.45;;
20890;SDS011;10605;52.968;8.844;2023-05-10T21:43:03;5.03;;;4.50;;
20890;SDS011;10605;52.968;8.844;2023-05-10T21:45:29;4.78;;;4.47;;
20890;SDS011;10605;52.968;8.844;2023-05-10T21:47:57;5.75;;;4.45;;
20890;SDS011;10605;52.968;8.844;2023-05-10T21:50:23;5.22;;;4.75;;
20890;SDS011;10605;52.968;8.844;2023-05-10T21:52:49;8.80;;;4.35;;
20890;SDS011;10605;52.968;8.844;2023-05-10T21:55:15;4.63;;;4.32;;
20890;SDS011;10605;52.968;8.844;2023-05-10T21:57:42;4.68;;;4.28;;
20890;SDS011;10605;52.968;8.844;2023-05-10T22:00:09;6.72;;;4.50;;
20890;SDS011;10605;52.968;8.844;2023-05-10T22:02:35;5.18;;;4.70;;
20890;SDS011;10605;52.968;8.844;2023-05-10T22:05:01;4.38;;;4.05;;
20890;SDS011;10605;52.968;8.844;2023-05-10T22:07:28;4.95;;;4.55;;
20890;SDS011;10605;52.968;8.844;2023-05-10T22:09:55;6.47;;;4.70;;
20890;SDS011;10605;52.968;8.844;2023-05-10T22:12:20;6.55;;;5.03;;
20890;SDS011;10605;52.968;8.844;2023-05-10T22:14:46;5.00;;;4.60;;
20890;SDS011;10605;52.968;8.844;2023-05-10T22:17:12;7.05;;;5.60;;
20890;SDS011;10605;52.968;8.844;2023-05-10T22:19:37;6.32;;;5.82;;
20890;SDS011;10605;52.968;8.844;2023-05-10T22:22:03;5.70;;;5.30;;
20890;SDS011;10605;52.968;8.844;2023-05-10T22:24:29;7.88;;;5.43;;
20890;SDS011;10605;52.968;8.844;2023-05-10T22:26:55;6.45;;;5.90;;
20890;SDS011;10605;52.968;8.844;2023-05-10T22:29:21;5.88;;;5.38;;
20890;SDS011;10605;52.968;8.844;2023-05-10T22:31:47;6.13;;;5.53;;
20890;SDS011;10605;52.968;8.844;2023-05-10T22:34:13;5.88;;;5.38;;
20890;SDS011;10605;52.968;8.844;2023-05-10T22:36:39;8.13;;;5.55;;
20890;SDS011;10605;52.968;8.844;2023-05-10T22:39:05;5.90;;;5.40;;
20890;SDS011;10605;52.968;8.844;2023-05-10T22:41:34;5.90;;;5.40;;
20890;SDS011;10605;52.968;8.844;2023-05-10T22:44:00;5.25;;;4.85;;
20890;SDS011;10605;52.968;8.844;2023-05-10T22:46:26;5.82;;;5.32;;
20890;SDS011;10605;52.968;8.844;2023-05-10T22:48:53;5.22;;;4.82;;
20890;SDS011;10605;52.968;8.844;2023-05-10T22:51:19;6.55;;;4.95;;
20890;SDS011;10605;52.968;8.844;2023-05-10T22:53:45;6.03;;;5.43;;
20890;SDS011;10605;52.968;8.844;2023-05-10T22:56:10;6.22;;;4.90;;
20890;SDS011;10605;52.968;8.844;2023-05-10T22:58:36;6.10;;;5.25;;
20890;SDS011;10605;52.968;8.844;2023-05-10T23:01:02;8.20;;;5.55;;
20890;SDS011;10605;52.968;8.844;2023-05-10T23:03:28;5.80;;;5.30;;
20890;SDS011;10605;52.968;8.844;2023-05-10T23:05:54;5.82;;;5.32;;
20890;SDS011;10605;52.968;8.844;2023-05-10T23:08:20;5.88;;;5.35;;
20890;SDS011;10605;52.968;8.844;2023-05-10T23:10:46;6.40;;;5.45;;
20890;SDS011;10605;52.968;8.844;2023-05-10T23:13:12;6.50;;;5.57;;
20890;SDS011;10605;52.968;8.844;2023-05-10T23:15:38;6.63;;;6.00;;
20890;SDS011;10605;52.968;8.844;2023-05-10T23:18:04;6.45;;;5.85;;
20890;SDS011;10605;52.968;8.844;2023-05-10T23:20:30;6.47;;;5.97;;
20890;SDS011;10605;52.968;8.844;2023-05-10T23:22:56;6.40;;;5.80;;
20890;SDS011;10605;52.968;8.844;2023-05-10T23:25:21;6.43;;;5.93;;
20890;SDS011;10605;52.968;8.844;2023-05-10T23:27:47;5.88;;;5.38;;
20890;SDS011;10605;52.968;8.844;2023-05-10T23:30:13;6.53;;;6.03;;
20890;SDS011;10605;52.968;8.844;2023-05-10T23:32:38;6.50;;;5.82;;
20890;SDS011;10605;52.968;8.844;2023-05-10T23:35:04;6.88;;;6.38;;
20890;SDS011;10605;52.968;8.844;2023-05-10T23:37:30;7.20;;;6.60;;
20890;SDS011;10605;52.968;8.844;2023-05-10T23:39:56;7.25;;;6.55;;
20890;SDS011;10605;52.968;8.844;2023-05-10T23:42:22;7.45;;;6.75;;
20890;SDS011;10605;52.968;8.844;2023-05-10T23:44:47;8.00;;;7.22;;
20890;SDS011;10605;52.968;8.844;2023-05-10T23:47:14;7.20;;;6.68;;
20890;SDS011;10605;52.968;8.844;2023-05-10T23:49:40;7.22;;;6.63;;
20890;SDS011;10605;52.968;8.844;2023-05-10T23:52:08;9.70;;;7.45;;
20890;SDS011;10605;52.968;8.844;2023-05-10T23:54:34;12.77;;;8.55;;
20890;SDS011;10605;52.968;8.844;2023-05-10T23:57:00;10.23;;;9.18;;
20890;SDS011;10605;52.968;8.844;2023-05-10T23:59:25;10.65;;;8.00;;
